createdAt,value
2022-11-24T00:01:17.884Z,21.05
2022-11-24T00:03:47.816Z,18.27
2022-11-24T00:06:16.803Z,20.23
2022-11-24T00:08:46.206Z,20.02
2022-11-24T00:11:17.033Z,15.05
2022-11-24T00:13:45.584Z,20.08
2022-11-24T00:16:25.925Z,16.10
2022-11-24T00:18:56.493Z,17.90
2022-11-24T00:21:26.423Z,16.25
2022-11-24T00:23:54.826Z,20.13
2022-11-24T00:26:28.854Z,18.60
2022-11-24T00:28:59.810Z,17.27
2022-11-24T00:31:35.200Z,17.20
2022-11-24T00:34:06.732Z,13.52
2022-11-24T00:36:36.160Z,17.02
2022-11-24T00:39:17.601Z,18.52
2022-11-24T00:41:45.943Z,17.10
2022-11-24T00:44:14.019Z,18.30
2022-11-24T00:46:42.448Z,20.92
2022-11-24T00:49:10.921Z,16.83
2022-11-24T00:51:38.969Z,19.92
2022-11-24T00:54:07.578Z,19.90
2022-11-24T00:56:35.579Z,26.65
2022-11-24T00:59:04.275Z,21.63
2022-11-24T01:01:32.903Z,23.67
2022-11-24T01:04:02.282Z,22.33
2022-11-24T01:06:30.442Z,18.42
2022-11-24T01:08:58.972Z,19.17
2022-11-24T01:11:50.387Z,21.83
2022-11-24T01:14:19.693Z,21.77
2022-11-24T01:16:48.179Z,28.77
2022-11-24T01:19:16.420Z,20.02
2022-11-24T01:21:44.776Z,26.20
2022-11-24T01:24:14.159Z,23.60
2022-11-24T01:26:42.918Z,23.65
2022-11-24T01:29:12.777Z,23.83
2022-11-24T01:31:40.973Z,22.33
2022-11-24T01:34:08.948Z,19.17
2022-11-24T01:36:38.125Z,22.02
2022-11-24T01:39:06.963Z,12.95
2022-11-24T01:41:35.935Z,16.83
2022-11-24T01:44:25.443Z,17.60
2022-11-24T01:47:18.580Z,14.27
2022-11-24T01:49:51.668Z,14.70
2022-11-24T01:52:42.958Z,18.80
2022-11-24T01:55:16.229Z,14.90
2022-11-24T02:00:19.287Z,13.20
2022-11-24T02:02:47.431Z,21.55
2022-11-24T02:05:33.449Z,10.35
2022-11-24T02:08:03.281Z,13.70
2022-11-24T02:10:31.350Z,11.80
2022-11-24T02:13:00.729Z,14.50
2022-11-24T02:15:29.821Z,18.42
2022-11-24T02:17:59.906Z,15.43
2022-11-24T02:20:27.908Z,14.10
2022-11-24T02:23:20.377Z,13.68
2022-11-24T02:25:55.493Z,18.70
2022-11-24T02:28:26.623Z,25.33
2022-11-24T02:30:54.804Z,18.25
2022-11-24T02:33:25.569Z,20.83
2022-11-24T02:35:53.752Z,17.85
2022-11-24T02:38:36.130Z,11.85
2022-11-24T02:41:08.534Z,14.05
2022-11-24T02:43:42.830Z,13.88
2022-11-24T02:46:10.995Z,18.92
2022-11-24T02:48:39.853Z,13.27
2022-11-24T02:51:07.999Z,19.23
2022-11-24T02:53:36.470Z,11.85
2022-11-24T02:56:05.874Z,11.05
2022-11-24T02:58:33.992Z,11.90
2022-11-24T03:01:01.895Z,14.63
2022-11-24T03:03:30.908Z,15.45
2022-11-24T03:05:59.237Z,13.90
2022-11-24T03:08:27.730Z,14.05
2022-11-24T03:10:56.140Z,13.95
2022-11-24T03:13:24.213Z,17.15
2022-11-24T03:16:10.630Z,18.65
2022-11-24T03:18:39.564Z,19.27
2022-11-24T03:21:08.042Z,20.58
2022-11-24T03:23:35.992Z,18.13
2022-11-24T03:26:12.233Z,20.25
2022-11-24T03:28:41.850Z,16.15
2022-11-24T03:31:12.207Z,17.40
2022-11-24T03:33:40.866Z,11.75
2022-11-24T03:36:09.368Z,16.33
2022-11-24T03:38:37.317Z,17.90
2022-11-24T03:41:05.618Z,13.57
2022-11-24T03:43:35.880Z,13.73
2022-11-24T03:46:06.099Z,14.13
2022-11-24T03:48:34.881Z,13.05
2022-11-24T03:51:03.973Z,11.00
2022-11-24T03:53:33.799Z,11.75
2022-11-24T03:56:02.960Z,10.88
2022-11-24T03:58:31.343Z,13.57
2022-11-24T04:01:00.091Z,14.15
2022-11-24T04:03:28.602Z,12.55
2022-11-24T04:05:56.800Z,16.92
2022-11-24T04:08:25.206Z,19.48
2022-11-24T04:10:54.742Z,15.85
2022-11-24T04:13:24.659Z,13.05
2022-11-24T04:15:53.743Z,10.07
2022-11-24T04:18:22.852Z,8.77
2022-11-24T04:20:52.176Z,11.35
2022-11-24T04:23:20.509Z,9.50
2022-11-24T04:25:48.915Z,10.63
2022-11-24T04:28:17.244Z,11.23
2022-11-24T04:30:45.388Z,10.68
2022-11-24T04:33:14.072Z,12.35
2022-11-24T04:35:42.009Z,10.90
2022-11-24T04:38:10.122Z,12.85
2022-11-24T04:40:38.532Z,9.43
2022-11-24T04:43:06.527Z,7.90
2022-11-24T04:45:35.111Z,11.45
2022-11-24T04:48:03.554Z,14.27
2022-11-24T04:50:31.492Z,12.38
2022-11-24T04:52:59.791Z,9.20
2022-11-24T04:55:27.668Z,9.65
2022-11-24T04:57:55.756Z,7.88
2022-11-24T05:00:23.778Z,8.40
2022-11-24T05:02:52.284Z,10.13
2022-11-24T05:05:20.284Z,9.43
2022-11-24T05:07:48.698Z,9.85
2022-11-24T05:10:35.237Z,10.50
2022-11-24T05:13:06.584Z,12.32
2022-11-24T05:15:34.648Z,10.85
2022-11-24T05:18:06.653Z,13.85
2022-11-24T05:20:34.946Z,9.77
2022-11-24T05:23:08.120Z,16.85
2022-11-24T05:25:37.284Z,19.40
2022-11-24T05:28:11.163Z,23.20
2022-11-24T05:30:39.878Z,16.63
2022-11-24T05:33:12.439Z,19.88
2022-11-24T05:35:40.535Z,15.32
2022-11-24T05:38:08.790Z,18.30
2022-11-24T05:40:37.680Z,14.18
2022-11-24T05:43:05.751Z,11.95
2022-11-24T05:45:34.450Z,12.05
2022-11-24T05:48:11.040Z,12.13
2022-11-24T05:50:39.170Z,15.80
2022-11-24T05:53:11.459Z,14.90
2022-11-24T05:55:40.927Z,13.73
2022-11-24T05:58:10.417Z,15.18
2022-11-24T06:00:38.483Z,11.63
2022-11-24T06:03:06.676Z,10.98
2022-11-24T06:05:35.123Z,12.30
2022-11-24T06:08:03.157Z,12.68
2022-11-24T06:10:31.451Z,12.63
2022-11-24T06:12:59.395Z,11.70
2022-11-24T06:15:27.849Z,10.60
2022-11-24T06:17:56.522Z,11.30
2022-11-24T06:20:29.780Z,10.48
2022-11-24T06:23:01.230Z,8.80
2022-11-24T06:25:30.470Z,14.43
2022-11-24T06:27:58.854Z,13.43
2022-11-24T06:30:26.803Z,12.60
2022-11-24T06:32:55.998Z,13.68
2022-11-24T06:35:24.194Z,13.63
2022-11-24T06:37:52.093Z,14.73
2022-11-24T06:40:20.008Z,13.88
2022-11-24T06:42:52.421Z,12.63
2022-11-24T06:45:20.680Z,14.00
2022-11-24T06:47:48.695Z,12.25
2022-11-24T06:50:16.740Z,13.20
2022-11-24T06:52:44.712Z,12.00
2022-11-24T06:55:12.593Z,10.98
2022-11-24T06:57:41.161Z,12.10
2022-11-24T07:00:09.689Z,20.17
2022-11-24T07:02:42.507Z,23.45
2022-11-24T07:05:13.726Z,11.80
2022-11-24T07:07:42.232Z,14.63
2022-11-24T07:10:10.707Z,13.65
2022-11-24T07:12:38.610Z,10.77
2022-11-24T07:15:07.285Z,10.45
2022-11-24T07:17:39.815Z,9.40
2022-11-24T07:20:09.384Z,10.60
2022-11-24T07:22:37.685Z,16.45
2022-11-24T07:25:07.743Z,13.77
2022-11-24T07:27:36.113Z,14.35
2022-11-24T07:30:04.576Z,9.77
2022-11-24T07:32:33.156Z,9.80
2022-11-24T07:35:01.163Z,16.52
2022-11-24T07:37:32.032Z,16.98
2022-11-24T07:40:00.831Z,17.75
2022-11-24T07:42:29.170Z,17.92
2022-11-24T07:44:57.107Z,15.05
2022-11-24T07:47:25.114Z,16.33
2022-11-24T07:49:53.504Z,18.63
2022-11-24T07:52:21.525Z,19.15
2022-11-24T07:54:49.965Z,15.95
2022-11-24T07:57:17.922Z,13.27
2022-11-24T07:59:46.052Z,9.45
2022-11-24T08:02:14.713Z,16.60
2022-11-24T08:04:42.783Z,10.35
2022-11-24T08:07:11.183Z,11.13
2022-11-24T08:09:40.001Z,11.27
2022-11-24T08:12:08.091Z,10.48
2022-11-24T08:14:36.547Z,13.00
2022-11-24T08:17:04.739Z,11.00
2022-11-24T08:19:33.219Z,14.07
2022-11-24T08:22:01.341Z,18.10
2022-11-24T08:24:29.374Z,15.27
2022-11-24T08:26:57.758Z,13.07
2022-11-24T08:29:32.009Z,11.20
2022-11-24T08:32:00.556Z,15.52
2022-11-24T08:34:28.614Z,17.65
2022-11-24T08:36:56.754Z,15.40
2022-11-24T08:39:25.272Z,14.30
2022-11-24T08:41:53.639Z,15.23
2022-11-24T08:44:22.347Z,12.57
2022-11-24T08:46:50.536Z,8.60
2022-11-24T08:49:43.346Z,14.95
2022-11-24T08:52:11.977Z,8.82
2022-11-24T08:54:41.058Z,9.45
2022-11-24T08:57:09.165Z,7.82
2022-11-24T08:59:37.759Z,7.88
2022-11-24T09:02:06.349Z,11.32
2022-11-24T09:04:34.883Z,14.15
2022-11-24T09:07:03.080Z,7.15
2022-11-24T09:09:31.765Z,7.00
2022-11-24T09:12:00.714Z,8.43
2022-11-24T09:14:29.461Z,7.30
2022-11-24T09:16:57.670Z,6.22
2022-11-24T09:19:25.840Z,6.43
2022-11-24T09:21:53.925Z,9.35
2022-11-24T09:24:23.028Z,10.88
2022-11-24T09:26:51.131Z,8.82
2022-11-24T09:29:19.140Z,11.65
2022-11-24T09:31:47.144Z,8.40
2022-11-24T09:34:16.621Z,6.90
2022-11-24T09:36:45.072Z,7.18
2022-11-24T09:39:13.778Z,6.90
2022-11-24T09:42:18.517Z,6.57
2022-11-24T09:45:12.676Z,5.97
2022-11-24T09:48:15.059Z,6.28
2022-11-24T09:50:46.897Z,6.47
2022-11-24T09:53:38.212Z,9.32
2022-11-24T09:56:23.560Z,5.95
2022-11-24T09:59:00.687Z,5.35
2022-11-24T10:01:37.768Z,7.13
2022-11-24T10:04:22.041Z,7.38
2022-11-24T10:07:04.675Z,8.40
2022-11-24T10:10:09.655Z,7.97
2022-11-24T10:12:46.881Z,6.93
2022-11-24T10:15:29.775Z,6.13
2022-11-24T10:18:09.396Z,6.47
2022-11-24T10:20:59.487Z,8.30
2022-11-24T10:23:49.371Z,30.77
2022-11-24T10:26:26.538Z,92.45
2022-11-24T10:28:56.399Z,8.27
2022-11-24T10:31:36.874Z,12.20
2022-11-24T10:34:17.027Z,8.48
2022-11-24T10:36:56.659Z,24.58
2022-11-24T10:39:30.401Z,17.50
2022-11-24T10:42:12.522Z,8.95
2022-11-24T10:44:43.186Z,7.00
2022-11-24T10:47:23.012Z,9.10
2022-11-24T10:50:03.179Z,9.80
2022-11-24T10:52:44.956Z,11.27
2022-11-24T10:55:13.066Z,9.88
2022-11-24T10:57:41.495Z,12.27
2022-11-24T11:00:34.417Z,10.43
2022-11-24T11:03:21.717Z,8.98
2022-11-24T11:06:13.720Z,6.53
2022-11-24T11:08:41.918Z,7.43
2022-11-24T11:11:28.122Z,11.05
2022-11-24T11:14:03.531Z,6.80
2022-11-24T11:16:40.594Z,7.22
2022-11-24T11:19:55.478Z,8.18
2022-11-24T11:22:29.390Z,7.63
2022-11-24T11:25:15.417Z,9.15
2022-11-24T11:27:43.530Z,8.25
2022-11-24T11:36:14.825Z,8.32
2022-11-24T11:38:44.645Z,13.55
2022-11-24T11:41:20.203Z,8.55
2022-11-24T11:43:56.462Z,9.32
2022-11-24T11:46:26.247Z,8.07
2022-11-24T11:48:54.580Z,7.68
2022-11-24T11:51:42.481Z,8.07
2022-11-24T11:54:25.740Z,9.38
2022-11-24T11:57:30.255Z,9.18
2022-11-24T12:00:17.820Z,8.50
2022-11-24T12:02:53.117Z,8.93
2022-11-24T12:05:24.467Z,9.57
2022-11-24T12:08:09.757Z,7.10
2022-11-24T12:10:46.327Z,8.50
2022-11-24T12:13:36.659Z,7.68
2022-11-24T12:16:20.321Z,8.80
2022-11-24T12:19:05.064Z,10.35
2022-11-24T12:21:42.810Z,10.95
2022-11-24T12:24:17.186Z,9.88
2022-11-24T12:26:57.734Z,14.07
2022-11-24T12:30:01.149Z,12.07
2022-11-24T12:32:50.820Z,10.35
2022-11-24T12:35:40.154Z,12.82
2022-11-24T12:38:39.095Z,10.85
2022-11-24T12:41:42.435Z,10.52
2022-11-24T12:44:31.038Z,10.93
2022-11-24T12:47:24.225Z,8.68
2022-11-24T12:50:19.450Z,10.43
2022-11-24T12:52:57.136Z,9.40
2022-11-24T12:55:28.933Z,7.80
2022-11-24T12:58:10.587Z,11.52
2022-11-24T13:01:02.991Z,12.68
2022-11-24T13:04:05.112Z,10.40
2022-11-24T13:06:54.082Z,9.18
2022-11-24T13:09:22.215Z,7.15
2022-11-24T13:11:52.658Z,9.77
2022-11-24T13:14:33.768Z,7.68
2022-11-24T13:19:53.115Z,12.50
2022-11-24T13:22:26.209Z,9.40
2022-11-24T13:25:39.759Z,9.63
2022-11-24T13:29:03.235Z,12.87
2022-11-24T13:31:34.138Z,11.90
2022-11-24T13:34:43.179Z,11.60
2022-11-24T13:37:31.941Z,8.82
2022-11-24T13:40:13.340Z,13.18
2022-11-24T13:42:57.624Z,11.73
2022-11-24T13:45:41.226Z,10.38
2022-11-24T13:48:22.005Z,9.80
2022-11-24T13:50:54.426Z,10.02
2022-11-24T13:53:47.791Z,9.35
2022-11-24T13:56:15.955Z,9.05
2022-11-24T13:58:49.715Z,12.10
2022-11-24T14:01:28.930Z,8.75
2022-11-24T14:04:31.134Z,13.05
2022-11-24T14:07:09.141Z,10.20
2022-11-24T14:09:41.981Z,8.73
2022-11-24T14:12:20.593Z,12.30
2022-11-24T14:14:50.520Z,9.05
2022-11-24T14:17:24.584Z,9.15
2022-11-24T14:19:55.488Z,8.88
2022-11-24T14:22:33.872Z,10.18
2022-11-24T14:25:03.745Z,14.27
2022-11-24T14:27:40.276Z,10.57
2022-11-24T14:30:13.517Z,24.92
2022-11-24T14:32:52.950Z,17.55
2022-11-24T14:35:25.350Z,12.70
2022-11-24T14:37:55.446Z,8.95
2022-11-24T14:40:57.308Z,9.60
2022-11-24T14:43:34.692Z,9.85
2022-11-24T14:46:14.526Z,10.30
2022-11-24T14:48:50.620Z,12.70
2022-11-24T14:51:25.817Z,13.07
2022-11-24T14:54:03.540Z,9.88
2022-11-24T14:56:39.894Z,12.77
2022-11-24T14:59:36.538Z,15.23
2022-11-24T15:02:48.031Z,15.93
2022-11-24T15:05:17.135Z,23.55
2022-11-24T15:07:47.395Z,24.77
2022-11-24T15:10:33.395Z,28.05
2022-11-24T15:13:05.468Z,25.10
2022-11-24T15:15:39.323Z,25.58
2022-11-24T15:18:24.371Z,24.20
2022-11-24T15:20:53.013Z,24.45
2022-11-24T15:23:26.503Z,23.95
2022-11-24T15:26:03.986Z,26.33
2022-11-24T15:28:32.927Z,24.63
2022-11-24T15:31:02.186Z,28.98
2022-11-24T15:33:31.342Z,26.48
2022-11-24T15:35:59.772Z,29.23
2022-11-24T15:38:27.959Z,32.17
2022-11-24T15:41:00.235Z,25.15
2022-11-24T15:43:33.142Z,28.73
2022-11-24T15:46:02.315Z,23.75
2022-11-24T15:48:31.987Z,25.73
2022-11-24T15:51:03.433Z,25.33
2022-11-24T15:53:39.238Z,30.83
2022-11-24T15:56:12.642Z,30.10
2022-11-24T15:58:40.880Z,29.17
2022-11-24T16:01:09.447Z,30.98
2022-11-24T16:03:52.713Z,31.20
2022-11-24T16:06:25.469Z,30.00
2022-11-24T16:08:54.710Z,30.98
2022-11-24T16:11:23.311Z,27.92
2022-11-24T16:13:53.716Z,27.63
2022-11-24T16:16:23.608Z,28.13
2022-11-24T16:18:52.224Z,35.47
2022-11-24T16:21:20.301Z,34.78
2022-11-24T16:23:49.097Z,33.33
2022-11-24T16:26:17.147Z,29.27
2022-11-24T16:28:45.984Z,29.30
2022-11-24T16:31:16.257Z,26.95
2022-11-24T16:33:46.492Z,30.73
2022-11-24T16:36:15.476Z,34.03
2022-11-24T16:38:43.859Z,25.70
2022-11-24T16:41:12.018Z,29.35
2022-11-24T16:43:41.146Z,28.80
2022-11-24T16:46:09.112Z,23.65
2022-11-24T16:48:37.201Z,28.25
2022-11-24T16:51:12.229Z,33.17
2022-11-24T16:53:41.004Z,34.33
2022-11-24T16:56:09.994Z,31.70
2022-11-24T16:58:40.622Z,36.67
2022-11-24T17:01:11.907Z,37.58
2022-11-24T17:03:40.296Z,34.67
2022-11-24T17:06:12.498Z,28.00
2022-11-24T17:08:41.462Z,30.20
2022-11-24T17:11:12.697Z,29.55
2022-11-24T17:13:41.751Z,29.70
2022-11-24T17:16:14.333Z,26.95
2022-11-24T17:18:43.631Z,28.83
2022-11-24T17:21:20.429Z,27.23
2022-11-24T17:23:53.272Z,33.30
2022-11-24T17:26:21.881Z,30.48
2022-11-24T17:28:50.482Z,27.23
2022-11-24T17:31:26.344Z,26.98
2022-11-24T17:33:56.790Z,23.95
2022-11-24T17:36:25.849Z,31.35
2022-11-24T17:38:54.368Z,33.30
2022-11-24T17:41:23.234Z,30.30
2022-11-24T17:43:56.846Z,30.95
2022-11-24T17:46:26.978Z,22.83
2022-11-24T17:48:55.920Z,25.95
2022-11-24T17:51:26.254Z,26.25
2022-11-24T17:53:55.418Z,27.90
2022-11-24T17:56:26.283Z,23.20
2022-11-24T17:58:56.575Z,18.13
2022-11-24T18:01:26.201Z,17.23
2022-11-24T18:03:54.601Z,20.95
2022-11-24T18:06:26.050Z,19.05
2022-11-24T18:08:56.146Z,30.13
2022-11-24T18:11:30.982Z,29.23
2022-11-24T18:14:02.427Z,32.75
2022-11-24T18:16:34.974Z,26.05
2022-11-24T18:19:11.081Z,24.80
2022-11-24T18:21:44.835Z,27.75
2022-11-24T18:24:14.035Z,31.58
2022-11-24T18:26:43.345Z,37.50
2022-11-24T18:29:12.240Z,34.63
2022-11-24T18:31:40.584Z,39.97
2022-11-24T18:34:09.267Z,42.45
2022-11-24T18:36:37.603Z,40.38
2022-11-24T18:39:08.939Z,41.85
2022-11-24T18:41:37.185Z,37.28
2022-11-24T18:44:08.508Z,36.38
2022-11-24T18:46:37.768Z,40.72
2022-11-24T18:49:07.120Z,34.33
2022-11-24T18:51:36.325Z,38.17
2022-11-24T18:54:05.718Z,36.63
2022-11-24T18:56:34.013Z,39.22
2022-11-24T18:59:02.614Z,35.90
2022-11-24T19:01:31.309Z,35.60
2022-11-24T19:04:03.127Z,38.90
2022-11-24T19:06:34.600Z,39.60
2022-11-24T19:09:06.840Z,37.05
2022-11-24T19:11:37.471Z,36.85
2022-11-24T19:14:08.069Z,35.50
2022-11-24T19:16:36.468Z,58.03
2022-11-24T19:19:05.491Z,52.88
2022-11-24T19:21:37.271Z,47.78
2022-11-24T19:24:07.609Z,44.40
2022-11-24T19:26:36.286Z,45.30
2022-11-24T19:29:05.739Z,52.83
2022-11-24T19:31:34.878Z,51.75
2022-11-24T19:34:03.647Z,57.67
2022-11-24T19:36:32.924Z,64.28
2022-11-24T19:39:04.780Z,60.17
2022-11-24T19:41:33.747Z,52.80
2022-11-24T19:44:02.895Z,49.97
2022-11-24T19:46:31.066Z,57.03
2022-11-24T19:49:01.732Z,49.17
2022-11-24T19:51:35.140Z,38.90
2022-11-24T19:56:36.240Z,37.38
2022-11-24T19:59:07.378Z,43.42
2022-11-24T20:01:40.983Z,37.90
2022-11-24T20:04:12.830Z,38.60
2022-11-24T20:06:43.173Z,34.47
2022-11-24T20:11:43.965Z,33.55
2022-11-24T20:14:13.845Z,39.90
2022-11-24T20:16:42.485Z,41.92
2022-11-24T20:19:12.747Z,41.25
2022-11-24T20:21:46.424Z,36.30
2022-11-24T20:24:17.021Z,30.00
2022-11-24T20:26:49.659Z,26.13
2022-11-24T20:29:19.363Z,22.70
2022-11-24T20:31:53.762Z,30.95
2022-11-24T20:34:24.327Z,28.63
2022-11-24T20:36:55.455Z,29.75
2022-11-24T20:39:28.227Z,41.05
2022-11-24T20:41:57.383Z,38.97
2022-11-24T20:44:27.454Z,31.00
2022-11-24T20:46:59.750Z,33.10
2022-11-24T20:49:29.034Z,39.85
2022-11-24T20:51:57.708Z,26.15
2022-11-24T20:54:26.385Z,34.05
2022-11-24T20:56:54.907Z,29.10
2022-11-24T20:59:24.799Z,30.55
2022-11-24T21:01:57.292Z,28.48
2022-11-24T21:04:27.273Z,29.77
2022-11-24T21:06:56.282Z,27.02
2022-11-24T21:09:25.042Z,39.35
2022-11-24T21:11:53.337Z,42.13
2022-11-24T21:14:22.289Z,41.33
2022-11-24T21:16:50.690Z,42.35
2022-11-24T21:19:19.453Z,41.28
2022-11-24T21:21:49.025Z,47.40
2022-11-24T21:24:19.014Z,52.30
2022-11-24T21:26:48.218Z,48.85
2022-11-24T21:29:22.478Z,37.20
2022-11-24T21:31:50.551Z,38.88
2022-11-24T21:34:19.776Z,33.35
2022-11-24T21:36:47.857Z,36.80
2022-11-24T21:39:16.546Z,33.88
2022-11-24T21:41:45.126Z,28.85
2022-11-24T21:44:14.545Z,35.70
2022-11-24T21:46:48.063Z,38.65
2022-11-24T21:49:19.142Z,41.53
2022-11-24T21:51:47.845Z,44.25
2022-11-24T21:54:15.720Z,42.08
2022-11-24T21:56:43.746Z,45.58
2022-11-24T21:59:11.955Z,51.58
2022-11-24T22:01:40.553Z,40.83
2022-11-24T22:04:09.656Z,89.55
2022-11-24T22:06:38.136Z,100.78
2022-11-24T22:09:06.544Z,60.42
2022-11-24T22:11:34.469Z,33.55
2022-11-24T22:14:02.690Z,45.92
2022-11-24T22:16:30.907Z,28.98
2022-11-24T22:19:00.628Z,43.65
2022-11-24T22:21:33.763Z,26.20
2022-11-24T22:24:02.728Z,25.60
2022-11-24T22:26:31.208Z,40.25
2022-11-24T22:28:59.634Z,32.75
2022-11-24T22:31:32.931Z,32.90
2022-11-24T22:36:30.455Z,40.75
2022-11-24T22:39:03.339Z,45.17
2022-11-24T22:41:36.165Z,41.78
2022-11-24T22:44:05.571Z,43.72
2022-11-24T22:46:34.458Z,39.80
2022-11-24T22:49:02.761Z,45.25
2022-11-24T22:51:33.928Z,39.17
2022-11-24T22:54:04.162Z,49.00
2022-11-24T22:56:33.924Z,43.78
2022-11-24T22:59:03.301Z,41.63
2022-11-24T23:01:33.725Z,43.50
2022-11-24T23:04:02.624Z,42.30
2022-11-24T23:06:32.733Z,45.38
2022-11-24T23:09:02.195Z,47.55
2022-11-24T23:11:37.747Z,50.33
2022-11-24T23:14:08.956Z,55.92
2022-11-24T23:16:37.045Z,65.40
2022-11-24T23:19:05.662Z,35.90
2022-11-24T23:21:36.446Z,29.40
2022-11-24T23:24:05.488Z,23.98
2022-11-24T23:26:39.430Z,24.60
2022-11-24T23:29:07.950Z,19.20
2022-11-24T23:31:36.596Z,24.92
2022-11-24T23:34:05.772Z,26.67
2022-11-24T23:36:34.407Z,23.20
2022-11-24T23:39:08.580Z,19.15
2022-11-24T23:41:37.035Z,18.35
2022-11-24T23:44:05.506Z,18.98
2022-11-24T23:46:34.222Z,17.42
2022-11-24T23:49:02.541Z,17.88
2022-11-24T23:51:33.223Z,15.18
2022-11-24T23:54:01.543Z,13.27
2022-11-24T23:56:34.191Z,16.63
2022-11-24T23:59:03.972Z,15.65
